Time;durP1;ratioP1;P1;durP2;ratioP2;P2;SDS_P1;SDS_P2;PMS_P1;PMS_P2;Temp;Humidity;BMP_temperature;BMP_pressure;BME280_temperature;BME280_humidity;BME280_pressure;Samples;Min_cycle;Max_cycle;Signal;HPM_P1;HPM_P2
2023/12/27 00:00:29;;;;;;;1999.90;999.90;;;5.30;88.70;;;;;;5048983;28;20061;-75
2023/12/27 00:02:55;;;;;;;1999.90;999.90;;;5.30;88.90;;;;;;5046772;28;20126;-75
2023/12/27 00:05:20;;;;;;;1999.90;999.90;;;5.30;89.10;;;;;;5049181;28;20036;-75
2023/12/27 00:07:46;;;;;;;1999.90;999.90;;;5.30;89.30;;;;;;5046924;28;20033;-74
2023/12/27 00:10:12;;;;;;;1999.90;999.90;;;5.30;89.10;;;;;;5047107;28;20499;-75
2023/12/27 00:12:37;;;;;;;1999.90;999.90;;;5.30;89.20;;;;;;5047228;28;20041;-74
2023/12/27 00:15:03;;;;;;;1999.90;999.90;;;5.30;89.20;;;;;;5046022;28;20045;-74
2023/12/27 00:17:29;;;;;;;1999.90;999.90;;;5.30;89.00;;;;;;5046377;28;20111;-74
2023/12/27 00:19:55;;;;;;;1999.90;999.90;;;5.30;89.10;;;;;;5047284;28;20484;-74
2023/12/27 00:22:20;;;;;;;1999.90;999.90;;;5.30;89.00;;;;;;5043169;28;20029;-75
2023/12/27 00:24:46;;;;;;;1999.90;999.90;;;5.20;89.00;;;;;;5046249;28;20095;-74
2023/12/27 00:27:12;;;;;;;1999.90;999.90;;;5.20;89.20;;;;;;5048521;28;20147;-75
2023/12/27 00:29:38;;;;;;;1999.90;999.90;;;5.20;89.10;;;;;;5047290;28;20067;-75
2023/12/27 00:32:08;;;;;;;1999.90;999.90;;;5.20;89.20;;;;;;5044676;28;20100;-75
2023/12/27 00:34:34;;;;;;;1999.90;999.90;;;5.20;89.20;;;;;;5045362;28;20044;-75
2023/12/27 00:37:00;;;;;;;1999.90;999.90;;;5.30;89.30;;;;;;5046363;28;20040;-74
2023/12/27 00:39:26;;;;;;;1999.90;999.90;;;5.40;89.40;;;;;;5047741;28;20028;-74
2023/12/27 00:41:53;;;;;;;1999.90;999.90;;;5.40;89.20;;;;;;5046496;28;20028;-74
2023/12/27 00:44:19;;;;;;;1999.90;999.90;;;5.40;89.10;;;;;;5045649;28;20048;-74
2023/12/27 00:46:44;;;;;;;1999.90;999.90;;;5.50;89.30;;;;;;5048090;28;20136;-75
2023/12/27 00:49:10;;;;;;;1999.90;999.90;;;5.50;88.70;;;;;;5043616;28;20136;-73
2023/12/27 00:51:36;;;;;;;1999.90;999.90;;;5.60;88.80;;;;;;5047293;28;20533;-75
2023/12/27 00:54:02;;;;;;;1999.90;999.90;;;5.50;88.70;;;;;;5047344;28;20040;-75
2023/12/27 00:56:27;;;;;;;1999.90;999.90;;;5.40;89.00;;;;;;5047980;28;20108;-75
2023/12/27 00:58:53;;;;;;;1999.90;999.90;;;5.50;88.60;;;;;;5046539;28;20037;-74
2023/12/27 01:01:19;;;;;;;1999.90;999.90;;;5.50;88.60;;;;;;5044899;28;20437;-74
2023/12/27 01:03:44;;;;;;;1999.90;999.90;;;5.50;88.50;;;;;;5047001;28;20119;-75
2023/12/27 01:06:11;;;;;;;1999.90;999.90;;;5.50;88.80;;;;;;5045414;28;20043;-75
2023/12/27 01:08:37;;;;;;;1999.90;999.90;;;5.50;88.90;;;;;;5046139;28;20502;-74
2023/12/27 01:11:03;;;;;;;1999.90;999.90;;;5.40;88.50;;;;;;5045908;28;20838;-74
2023/12/27 01:13:29;;;;;;;1999.90;999.90;;;5.40;88.50;;;;;;5042625;28;20702;-74
2023/12/27 01:15:59;;;;;;;1999.90;999.90;;;5.30;88.10;;;;;;5047493;28;20051;-75
2023/12/27 01:18:25;;;;;;;1999.90;999.90;;;5.30;88.30;;;;;;5046823;28;20032;-75
2023/12/27 01:20:53;;;;;;;1999.90;999.90;;;5.30;88.20;;;;;;5040739;28;20045;-75
2023/12/27 01:23:19;;;;;;;1999.90;999.90;;;5.30;88.40;;;;;;5026208;28;20040;-74
2023/12/27 01:25:45;;;;;;;1999.90;999.90;;;5.30;88.60;;;;;;5046250;28;20025;-74
2023/12/27 01:28:10;;;;;;;1999.90;999.90;;;5.40;88.30;;;;;;5047833;28;20025;-75
2023/12/27 01:30:36;;;;;;;1999.90;999.90;;;5.40;88.10;;;;;;5047545;28;20033;-75
2023/12/27 01:33:02;;;;;;;1999.90;999.90;;;5.50;88.00;;;;;;5061636;28;20036;-75
2023/12/27 01:35:28;;;;;;;1999.90;999.90;;;5.50;87.70;;;;;;5044810;28;20040;-74
2023/12/27 01:37:53;;;;;;;1999.90;999.90;;;5.40;87.40;;;;;;5045584;28;20696;-75
2023/12/27 01:40:19;;;;;;;1999.90;999.90;;;5.40;87.70;;;;;;5040470;28;20648;-75
2023/12/27 01:42:45;;;;;;;1999.90;999.90;;;5.30;87.30;;;;;;5043792;28;20487;-74
2023/12/27 01:45:10;;;;;;;1999.90;999.90;;;5.30;87.50;;;;;;5046746;28;20017;-74
2023/12/27 01:47:37;;;;;;;1999.90;999.90;;;5.30;87.70;;;;;;5041407;28;20108;-75
2023/12/27 01:50:09;;;;;;;1999.90;999.90;;;5.30;87.50;;;;;;5042137;28;20048;-75
2023/12/27 01:52:41;;;;;;;1999.90;999.90;;;5.20;87.50;;;;;;5046508;28;20033;-75
2023/12/27 01:55:09;;;;;;;1999.90;999.90;;;5.10;87.10;;;;;;5044563;28;20191;-73
2023/12/27 01:57:39;;;;;;;1999.90;999.90;;;5.10;87.60;;;;;;5045858;28;20529;-75
2023/12/27 02:00:12;;;;;;;1999.90;999.90;;;5.10;88.00;;;;;;5044738;28;20033;-73
2023/12/27 02:02:38;;;;;;;1999.90;999.90;;;5.10;88.10;;;;;;5046096;28;20033;-75
2023/12/27 02:05:04;;;;;;;1999.90;999.90;;;5.10;87.90;;;;;;5046620;28;20390;-74
2023/12/27 02:07:35;;;;;;;1999.90;999.90;;;5.00;87.90;;;;;;5043616;28;20442;-74
2023/12/27 02:10:01;;;;;;;;;;;5.00;88.00;;;;;;5043914;28;20033;-74
2023/12/27 02:12:29;;;;;;;1999.90;999.90;;;5.00;87.90;;;;;;5046579;28;19917;-75
2023/12/27 02:14:55;;;;;;;1999.90;999.90;;;5.00;88.30;;;;;;5046018;28;20025;-75
2023/12/27 02:17:22;;;;;;;1999.90;999.90;;;5.00;88.20;;;;;;5045468;28;20403;-75
2023/12/27 02:19:55;;;;;;;1999.90;999.90;;;4.90;88.00;;;;;;5045626;28;20033;-73
2023/12/27 02:22:23;;;;;;;1999.90;999.90;;;5.00;88.30;;;;;;5045157;28;20029;-74
2023/12/27 02:24:56;;;;;;;1999.90;999.90;;;4.90;88.20;;;;;;5045008;28;20037;-74
2023/12/27 02:27:22;;;;;;;1999.90;999.90;;;4.80;88.70;;;;;;5043631;28;20021;-75
2023/12/27 02:29:48;;;;;;;1999.90;999.90;;;4.80;88.90;;;;;;5046801;28;20032;-74
2023/12/27 02:32:14;;;;;;;1999.90;999.90;;;4.70;89.20;;;;;;5047727;28;20033;-75
2023/12/27 02:34:40;;;;;;;1999.90;999.90;;;4.70;89.20;;;;;;5044718;28;20033;-75
2023/12/27 02:37:05;;;;;;;1999.90;999.90;;;4.60;89.20;;;;;;5045648;28;20033;-75
2023/12/27 02:39:31;;;;;;;1999.90;999.90;;;4.60;89.40;;;;;;5045704;28;20044;-74
2023/12/27 02:41:57;;;;;;;1999.90;999.90;;;4.60;89.80;;;;;;5045196;28;20040;-75
2023/12/27 02:44:26;;;;;;;1999.90;999.90;;;4.60;89.80;;;;;;5046371;28;20028;-75
2023/12/27 02:46:52;;;;;;;1999.90;999.90;;;4.50;90.00;;;;;;5045659;28;20032;-74
2023/12/27 02:49:18;;;;;;;1999.90;999.90;;;4.50;90.00;;;;;;5043749;28;20098;-75
2023/12/27 02:51:43;;;;;;;1999.90;999.90;;;4.50;90.10;;;;;;5047739;28;20490;-74
2023/12/27 02:54:09;;;;;;;1999.90;999.90;;;4.40;90.20;;;;;;5048647;28;20044;-74
2023/12/27 02:56:35;;;;;;;1999.90;999.90;;;4.30;90.30;;;;;;5048282;28;20094;-75
2023/12/27 02:59:00;;;;;;;1999.90;999.90;;;4.30;90.50;;;;;;5046722;28;21291;-75
2023/12/27 03:01:26;;;;;;;1999.90;999.90;;;4.20;90.50;;;;;;5049801;28;20048;-75
2023/12/27 03:03:52;;;;;;;1999.90;999.90;;;4.20;90.60;;;;;;5048987;28;20094;-75
2023/12/27 03:06:17;;;;;;;1999.90;999.90;;;4.20;90.70;;;;;;5031194;28;20483;-75
2023/12/27 03:08:43;;;;;;;1999.90;999.90;;;4.10;90.60;;;;;;5047715;28;20037;-75
2023/12/27 03:11:09;;;;;;;1999.90;999.90;;;4.10;90.80;;;;;;5045255;28;20439;-74
2023/12/27 03:13:35;;;;;;;1999.90;999.90;;;4.00;90.80;;;;;;5048305;28;20714;-74
2023/12/27 03:16:05;;;;;;;1999.90;999.90;;;4.00;90.70;;;;;;5048408;28;20021;-75
2023/12/27 03:18:32;;;;;;;1999.90;999.90;;;4.00;91.10;;;;;;5049405;28;20033;-76
2023/12/27 03:20:59;;;;;;;1999.90;999.90;;;3.90;91.00;;;;;;5046081;28;20091;-75
2023/12/27 03:23:27;;;;;;;1999.90;999.90;;;3.90;91.00;;;;;;5049041;28;20036;-75
2023/12/27 03:25:56;;;;;;;1999.90;999.90;;;3.90;91.10;;;;;;5049613;28;20530;-75
2023/12/27 03:28:23;;;;;;;1999.90;999.90;;;3.80;91.20;;;;;;5048869;28;20033;-74
2023/12/27 03:30:49;;;;;;;1999.90;999.90;;;3.80;91.30;;;;;;5049573;28;20511;-75
2023/12/27 03:33:14;;;;;;;1999.90;999.90;;;3.80;91.40;;;;;;5049613;28;20108;-74
2023/12/27 03:35:40;;;;;;;1999.90;999.90;;;3.70;91.40;;;;;;5048646;28;20033;-76
2023/12/27 03:38:06;;;;;;;1999.90;999.90;;;3.70;91.40;;;;;;5047731;28;20498;-75
2023/12/27 03:40:32;;;;;;;1999.90;999.90;;;3.60;91.50;;;;;;5049024;28;20055;-75
2023/12/27 03:42:57;;;;;;;1999.90;999.90;;;3.60;91.60;;;;;;5043401;28;20037;-75
2023/12/27 03:45:23;;;;;;;1999.90;999.90;;;3.50;91.70;;;;;;5049278;28;20032;-76
2023/12/27 03:47:49;;;;;;;1999.90;999.90;;;3.50;91.70;;;;;;5048822;28;20033;-75
2023/12/27 03:50:14;;;;;;;1999.90;999.90;;;3.50;91.80;;;;;;5046883;28;20053;-75
2023/12/27 03:52:44;;;;;;;1999.90;999.90;;;3.40;91.70;;;;;;5045824;28;20380;-75
2023/12/27 03:55:12;;;;;;;1999.90;999.90;;;3.40;91.90;;;;;;5047509;28;20033;-75
2023/12/27 03:57:38;;;;;;;1999.90;999.90;;;3.40;92.10;;;;;;5045711;28;20037;-74
2023/12/27 04:00:05;;;;;;;1999.90;999.90;;;3.40;92.10;;;;;;5046775;28;20036;-75
2023/12/27 04:02:31;;;;;;;1999.90;999.90;;;3.40;92.20;;;;;;5047786;28;20037;-74
2023/12/27 04:04:56;;;;;;;1999.90;999.90;;;3.40;92.20;;;;;;5047821;28;20029;-75
2023/12/27 04:07:22;;;;;;;1999.90;999.90;;;3.30;92.30;;;;;;5047017;28;20049;-76
2023/12/27 04:09:48;;;;;;;1999.90;999.90;;;3.40;92.30;;;;;;5045358;28;20087;-74
2023/12/27 04:12:13;;;;;;;1999.90;999.90;;;3.40;92.30;;;;;;5047408;28;20028;-74
2023/12/27 04:14:39;;;;;;;1999.90;999.90;;;3.40;92.40;;;;;;5046751;28;20041;-76
2023/12/27 04:17:04;;;;;;;1999.90;999.90;;;3.40;92.40;;;;;;5047049;28;20045;-75
2023/12/27 04:19:30;;;;;;;1999.90;999.90;;;3.40;92.30;;;;;;5047500;28;20643;-75
2023/12/27 04:21:56;;;;;;;1999.90;999.90;;;3.40;92.20;;;;;;5048920;28;20032;-75
2023/12/27 04:24:21;;;;;;;1999.90;999.90;;;3.30;92.30;;;;;;5047183;28;20495;-75
2023/12/27 04:26:47;;;;;;;1999.90;999.90;;;3.30;92.30;;;;;;5030705;28;20033;-75
2023/12/27 04:29:13;;;;;;;1999.90;999.90;;;3.20;92.30;;;;;;5044553;28;20025;-74
2023/12/27 04:31:39;;;;;;;1999.90;999.90;;;3.20;92.40;;;;;;5047287;28;20040;-75
2023/12/27 04:34:05;;;;;;;1999.90;999.90;;;3.10;92.50;;;;;;5046847;28;20041;-75
2023/12/27 04:36:32;;;;;;;1999.90;999.90;;;3.00;92.60;;;;;;5047326;28;20120;-74
2023/12/27 04:38:58;;;;;;;1999.90;999.90;;;2.90;93.00;;;;;;5047426;28;20095;-73
2023/12/27 04:41:23;;;;;;;1999.90;999.90;;;2.80;92.80;;;;;;5031534;28;20032;-74
2023/12/27 04:43:49;;;;;;;1999.90;999.90;;;2.70;93.00;;;;;;5047265;28;20537;-75
2023/12/27 04:46:15;;;;;;;1999.90;999.90;;;2.70;93.20;;;;;;5048806;28;20087;-74
2023/12/27 04:48:40;;;;;;;1999.90;999.90;;;2.60;93.20;;;;;;5047215;28;20443;-74
2023/12/27 04:51:07;;;;;;;1999.90;999.90;;;2.50;93.20;;;;;;5045047;28;20114;-75
2023/12/27 04:53:33;;;;;;;1999.90;999.90;;;2.50;93.60;;;;;;5047721;28;20044;-74
2023/12/27 04:55:58;;;;;;;1999.90;999.90;;;2.50;93.70;;;;;;5048274;28;20438;-75
2023/12/27 04:58:24;;;;;;;1999.90;999.90;;;2.40;93.80;;;;;;5046086;28;20041;-74
2023/12/27 05:00:50;;;;;;;1999.90;999.90;;;2.30;93.80;;;;;;5046079;28;20037;-74
2023/12/27 05:03:15;;;;;;;1999.90;999.90;;;2.20;93.80;;;;;;5045450;28;20107;-75
2023/12/27 05:05:41;;;;;;;1999.90;999.90;;;2.10;94.10;;;;;;5047811;28;20029;-76
2023/12/27 05:08:07;;;;;;;1999.90;999.90;;;2.10;94.10;;;;;;5028241;28;20021;-74
2023/12/27 05:10:32;;;;;;;1999.90;999.90;;;2.00;94.30;;;;;;5046716;28;20029;-74
2023/12/27 05:12:58;;;;;;;1999.90;999.90;;;1.90;94.20;;;;;;5045766;28;20029;-74
2023/12/27 05:15:23;;;;;;;1999.90;999.90;;;2.00;94.40;;;;;;5048043;28;20356;-74
2023/12/27 05:17:49;;;;;;;1999.90;999.90;;;2.00;94.50;;;;;;5045178;28;20782;-75
2023/12/27 05:20:15;;;;;;;1999.90;999.90;;;2.00;94.70;;;;;;5044895;28;20039;-74
2023/12/27 05:22:40;;;;;;;1999.90;999.90;;;2.10;94.70;;;;;;5045333;28;20725;-75
2023/12/27 05:25:07;;;;;;;1999.90;999.90;;;2.10;94.90;;;;;;5043805;28;20033;-74
2023/12/27 05:27:35;;;;;;;1999.90;999.90;;;2.10;94.90;;;;;;5044508;28;20055;-74
2023/12/27 05:30:02;;;;;;;1999.90;999.90;;;2.00;94.70;;;;;;5045279;28;20057;-74
2023/12/27 05:32:28;;;;;;;1999.90;999.90;;;2.10;94.70;;;;;;5043894;28;20032;-75
2023/12/27 05:34:54;;;;;;;1999.90;999.90;;;2.10;94.70;;;;;;5043725;28;20025;-75
2023/12/27 05:37:20;;;;;;;1999.90;999.90;;;2.00;94.80;;;;;;5047137;28;20032;-75
2023/12/27 05:39:46;;;;;;;1999.90;999.90;;;2.00;94.80;;;;;;5046311;28;20545;-75
2023/12/27 05:42:14;;;;;;;1999.90;999.90;;;2.00;94.90;;;;;;5045687;28;20044;-75
2023/12/27 05:44:40;;;;;;;1999.90;999.90;;;1.90;94.80;;;;;;5047466;28;20036;-75
2023/12/27 05:47:06;;;;;;;1999.90;999.90;;;1.90;94.90;;;;;;5046883;28;20664;-74
2023/12/27 05:49:32;;;;;;;1999.90;999.90;;;1.90;94.90;;;;;;5047570;28;20068;-75
2023/12/27 05:51:57;;;;;;;1999.90;999.90;;;1.90;94.90;;;;;;5044726;28;20032;-74
2023/12/27 05:54:25;;;;;;;1999.90;999.90;;;1.80;94.80;;;;;;5029694;28;20075;-75
2023/12/27 05:56:51;;;;;;;1999.90;999.90;;;1.80;94.80;;;;;;5042062;28;20033;-74
2023/12/27 05:59:17;;;;;;;1999.90;999.90;;;1.80;94.80;;;;;;5045287;28;20705;-74
2023/12/27 06:01:52;;;;;;;1999.90;999.90;;;1.70;94.80;;;;;;5046459;28;20037;-75
2023/12/27 06:04:19;;;;;;;1999.90;999.90;;;1.70;94.90;;;;;;5042721;28;20021;-75
2023/12/27 06:06:44;;;;;;;1999.90;999.90;;;1.90;95.40;;;;;;5043399;28;20040;-74
2023/12/27 06:09:10;;;;;;;1999.90;999.90;;;2.00;95.30;;;;;;5046273;28;20021;-75
2023/12/27 06:11:37;;;;;;;1999.90;999.90;;;2.00;95.40;;;;;;5044577;28;20024;-75
2023/12/27 06:14:03;;;;;;;1999.90;999.90;;;1.90;95.30;;;;;;5045539;28;20059;-75
2023/12/27 06:16:29;;;;;;;1999.90;999.90;;;2.00;95.40;;;;;;5044990;28;20029;-74
2023/12/27 06:18:56;;;;;;;1999.90;999.90;;;1.90;95.40;;;;;;5046036;28;20112;-75
2023/12/27 06:21:22;;;;;;;1999.90;999.90;;;2.00;95.50;;;;;;5028910;28;20037;-74
2023/12/27 06:23:48;;;;;;;1999.90;999.90;;;1.90;95.30;;;;;;5044763;28;20162;-74
2023/12/27 06:26:13;;;;;;;1999.90;999.90;;;1.80;95.30;;;;;;5048326;28;20087;-74
2023/12/27 06:28:42;;;;;;;1999.90;999.90;;;1.80;95.30;;;;;;5047102;28;20040;-75
2023/12/27 06:31:08;;;;;;;1999.90;999.90;;;1.80;95.30;;;;;;5049684;28;20178;-74
2023/12/27 06:33:34;;;;;;;1999.90;999.90;;;1.80;95.50;;;;;;5049547;28;20037;-74
2023/12/27 06:36:00;;;;;;;1999.90;999.90;;;1.80;95.50;;;;;;5046995;28;20734;-74
2023/12/27 06:38:26;;;;;;;1999.90;999.90;;;1.80;95.50;;;;;;5050584;28;20037;-74
2023/12/27 06:40:52;;;;;;;1999.90;999.90;;;1.80;95.50;;;;;;5048586;28;20028;-75
2023/12/27 06:43:19;;;;;;;1999.90;999.90;;;1.80;95.50;;;;;;5049834;28;20513;-75
2023/12/27 06:45:45;;;;;;;1999.90;999.90;;;1.80;95.50;;;;;;5049931;28;20032;-76
2023/12/27 06:48:10;;;;;;;1999.90;999.90;;;1.70;95.60;;;;;;5047159;28;20029;-75
2023/12/27 06:50:36;;;;;;;1999.90;999.90;;;1.80;95.60;;;;;;5047026;28;20091;-75
2023/12/27 06:53:02;;;;;;;1999.90;999.90;;;1.80;95.60;;;;;;5049626;28;20110;-75
2023/12/27 06:55:28;;;;;;;1999.90;999.90;;;1.80;95.70;;;;;;5049395;28;20521;-75
2023/12/27 06:57:54;;;;;;;1999.90;999.90;;;1.80;95.70;;;;;;5050072;28;20480;-74
2023/12/27 07:00:19;;;;;;;1999.90;999.90;;;1.80;95.70;;;;;;5049268;28;20124;-74
2023/12/27 07:02:45;;;;;;;1999.90;999.90;;;1.80;95.90;;;;;;5047663;28;20029;-74
2023/12/27 07:05:12;;;;;;;1999.90;999.90;;;1.80;95.90;;;;;;5032124;28;20102;-74
2023/12/27 07:07:38;;;;;;;1999.90;999.90;;;1.90;96.00;;;;;;5049407;28;20025;-75
2023/12/27 07:10:04;;;;;;;1999.90;999.90;;;1.90;95.90;;;;;;5048084;28;20032;-74
2023/12/27 07:12:30;;;;;;;1999.90;999.90;;;1.90;95.90;;;;;;5048545;28;20045;-74
2023/12/27 07:14:57;;;;;;;1999.90;999.90;;;1.90;95.90;;;;;;5047709;28;20040;-75
2023/12/27 07:17:27;;;;;;;1999.90;999.90;;;1.90;95.90;;;;;;5048074;28;20025;-75
2023/12/27 07:19:53;;;;;;;1999.90;999.90;;;1.90;95.80;;;;;;5047965;28;20033;-75
2023/12/27 07:22:18;;;;;;;1999.90;999.90;;;1.80;95.70;;;;;;5047351;28;20094;-74
2023/12/27 07:24:44;;;;;;;1999.90;999.90;;;1.70;95.70;;;;;;5048725;28;20104;-75
2023/12/27 07:27:09;;;;;;;1999.90;999.90;;;1.80;96.10;;;;;;5049573;28;20025;-75
2023/12/27 07:29:38;;;;;;;1999.90;999.90;;;1.80;95.80;;;;;;5040951;28;20045;-74
2023/12/27 07:32:05;;;;;;;1999.90;999.90;;;1.90;95.80;;;;;;5048212;28;20017;-74
2023/12/27 07:34:30;;;;;;;1999.90;999.90;;;1.90;95.80;;;;;;5046467;28;20029;-74
2023/12/27 07:36:56;;;;;;;1999.90;999.90;;;2.00;95.80;;;;;;5046293;28;20055;-75
2023/12/27 07:39:22;;;;;;;1999.90;999.90;;;1.90;95.70;;;;;;5047645;28;20036;-74
2023/12/27 07:41:47;;;;;;;1999.90;999.90;;;1.90;95.70;;;;;;5044954;28;20471;-75
2023/12/27 07:44:15;;;;;;;1999.90;999.90;;;1.90;95.80;;;;;;5047222;28;20684;-74
2023/12/27 07:46:41;;;;;;;1999.90;999.90;;;1.90;95.70;;;;;;5049524;28;20037;-75
2023/12/27 07:49:07;;;;;;;1999.90;999.90;;;1.90;95.70;;;;;;5045428;28;20044;-74
2023/12/27 07:51:32;;;;;;;1999.90;999.90;;;1.90;95.70;;;;;;5048179;28;20443;-74
2023/12/27 07:53:58;;;;;;;1999.90;999.90;;;1.90;95.60;;;;;;5046287;28;20030;-75
2023/12/27 07:56:23;;;;;;;1999.90;999.90;;;1.90;95.60;;;;;;5048035;28;20102;-74
2023/12/27 07:58:49;;;;;;;1999.90;999.90;;;1.90;95.70;;;;;;5045280;28;20037;-74
2023/12/27 08:01:15;;;;;;;1999.90;999.90;;;1.90;95.60;;;;;;5044959;28;20040;-73
2023/12/27 08:03:41;;;;;;;1999.90;999.90;;;2.00;95.60;;;;;;5047463;28;20029;-75
2023/12/27 08:06:07;;;;;;;1999.90;999.90;;;2.00;95.60;;;;;;5045937;28;20052;-75
2023/12/27 08:08:34;;;;;;;1999.90;999.90;;;2.10;95.60;;;;;;5046401;28;20553;-75
2023/12/27 08:11:01;;;;;;;1999.90;999.90;;;2.20;95.60;;;;;;5030560;28;20033;-74
2023/12/27 08:13:32;;;;;;;1999.90;999.90;;;2.20;95.40;;;;;;5047647;28;20041;-74
2023/12/27 08:15:58;;;;;;;1999.90;999.90;;;2.20;95.30;;;;;;5046407;28;20456;-75
2023/12/27 08:18:23;;;;;;;1999.90;999.90;;;2.40;95.30;;;;;;5047763;28;20112;-75
2023/12/27 08:20:49;;;;;;;1999.90;999.90;;;2.40;95.30;;;;;;5046237;28;20041;-74
2023/12/27 08:23:18;;;;;;;1999.90;999.90;;;2.60;95.20;;;;;;5047794;28;20501;-75
2023/12/27 08:25:44;;;;;;;1999.90;999.90;;;2.70;95.00;;;;;;5044250;28;20053;-75
2023/12/27 08:28:10;;;;;;;1999.90;999.90;;;2.60;94.80;;;;;;5046603;28;20064;-75
2023/12/27 08:30:36;;;;;;;1999.90;999.90;;;2.70;94.90;;;;;;5043374;28;20147;-75
2023/12/27 08:33:06;;;;;;;1999.90;999.90;;;2.60;94.40;;;;;;5043602;28;20817;-75
2023/12/27 08:35:35;;;;;;;1999.90;999.90;;;2.60;94.70;;;;;;5044040;28;20037;-74
2023/12/27 08:38:01;;;;;;;1999.90;999.90;;;2.80;94.70;;;;;;5044601;28;20029;-75
2023/12/27 08:40:27;;;;;;;1999.90;999.90;;;3.00;94.60;;;;;;5047233;28;20033;-76
2023/12/27 08:42:53;;;;;;;1999.90;999.90;;;3.20;94.50;;;;;;5046040;28;20021;-75
2023/12/27 08:45:19;;;;;;;1999.90;999.90;;;3.30;94.20;;;;;;5046008;28;20025;-74
2023/12/27 08:47:45;;;;;;;1999.90;999.90;;;3.30;93.70;;;;;;5045232;28;20547;-73
2023/12/27 08:50:11;;;;;;;1999.90;999.90;;;3.40;93.90;;;;;;5040762;28;20530;-74
2023/12/27 08:52:38;;;;;;;1999.90;999.90;;;3.60;93.70;;;;;;5045456;28;20033;-75
2023/12/27 08:55:05;;;;;;;1999.90;999.90;;;3.70;92.80;;;;;;5045999;28;20213;-74
2023/12/27 08:57:32;;;;;;;1999.90;999.90;;;3.70;92.30;;;;;;5043911;28;20031;-75
2023/12/27 08:59:57;;;;;;;1999.90;999.90;;;3.70;91.70;;;;;;5044240;28;20021;-74
2023/12/27 09:02:23;;;;;;;1999.90;999.90;;;3.80;91.70;;;;;;5047916;28;20434;-74
2023/12/27 09:04:49;;;;;;;1999.90;999.90;;;3.80;90.90;;;;;;5046040;28;20083;-74
2023/12/27 09:07:15;;;;;;;1999.90;999.90;;;3.90;90.70;;;;;;5046319;28;20141;-75
2023/12/27 09:09:40;;;;;;;1999.90;999.90;;;4.00;90.40;;;;;;5047355;28;20037;-74
2023/12/27 09:12:06;;;;;;;1999.90;999.90;;;4.30;90.50;;;;;;5046634;28;20075;-74
2023/12/27 09:14:32;;;;;;;1999.90;999.90;;;4.60;88.80;;;;;;5046267;28;20052;-75
2023/12/27 09:16:57;;;;;;;1999.90;999.90;;;4.90;87.70;;;;;;5046680;28;20047;-75
2023/12/27 09:19:23;;;;;;;1999.90;999.90;;;5.00;85.70;;;;;;5047291;28;20128;-75
2023/12/27 09:21:52;;;;;;;1999.90;999.90;;;5.30;85.60;;;;;;5044306;28;20116;-75
2023/12/27 09:24:18;;;;;;;1999.90;999.90;;;5.30;84.30;;;;;;5044135;28;20033;-75
2023/12/27 09:26:47;;;;;;;1999.90;999.90;;;5.00;83.60;;;;;;5046217;28;20078;-75
2023/12/27 09:29:13;;;;;;;1999.90;999.90;;;4.80;83.20;;;;;;5045596;28;20102;-75
2023/12/27 09:31:39;;;;;;;1999.90;999.90;;;4.60;82.60;;;;;;5046337;28;20036;-76
2023/12/27 09:34:05;;;;;;;1999.90;999.90;;;4.60;82.90;;;;;;5045803;28;20033;-75
2023/12/27 09:36:31;;;;;;;1999.90;999.90;;;4.70;82.00;;;;;;5045948;28;20112;-76
2023/12/27 09:38:57;;;;;;;1999.90;999.90;;;4.80;80.30;;;;;;5045211;28;20033;-77
2023/12/27 09:41:22;;;;;;;1999.90;999.90;;;4.90;78.70;;;;;;5045131;28;20110;-75
2023/12/27 09:43:52;;;;;;;1999.90;999.90;;;5.00;76.70;;;;;;5043769;28;20495;-77
2023/12/27 09:46:18;;;;;;;1999.90;999.90;;;5.20;76.60;;;;;;5045376;28;20029;-75
2023/12/27 09:48:45;;;;;;;1999.90;999.90;;;5.20;76.30;;;;;;5046130;28;20051;-76
2023/12/27 09:51:11;;;;;;;1999.90;999.90;;;5.20;75.70;;;;;;5044765;28;20100;-75
2023/12/27 09:53:40;;;;;;;1999.90;999.90;;;5.30;76.70;;;;;;5043505;28;20633;-75
2023/12/27 09:56:07;;;;;;;1999.90;999.90;;;5.50;77.40;;;;;;5046086;28;20025;-75
2023/12/27 09:58:35;;;;;;;1999.90;999.90;;;5.50;75.30;;;;;;5046318;28;20033;-74
2023/12/27 10:01:02;;;;;;;1999.90;999.90;;;5.50;75.20;;;;;;5046079;28;20023;-75
2023/12/27 10:03:36;;;;;;;1999.90;999.90;;;5.50;74.80;;;;;;5042742;28;20300;-74
2023/12/27 10:06:34;;;;;;;1999.90;999.90;;;5.60;75.30;;;;;;5045667;28;20505;-74
2023/12/27 10:09:00;;;;;;;1999.90;999.90;;;5.60;75.10;;;;;;5042278;28;20030;-75
2023/12/27 10:11:27;;;;;;;1999.90;999.90;;;5.50;74.50;;;;;;5045002;28;20056;-74
2023/12/27 10:13:53;;;;;;;1999.90;999.90;;;5.60;75.40;;;;;;5047467;28;20121;-75
2023/12/27 10:16:19;;;;;;;1999.90;999.90;;;5.70;76.20;;;;;;5040144;28;20108;-74
2023/12/27 10:18:46;;;;;;;1999.90;999.90;;;5.60;75.60;;;;;;5039867;28;20678;-76
2023/12/27 10:21:12;;;;;;;1999.90;999.90;;;5.60;75.20;;;;;;5044390;28;20021;-75
2023/12/27 10:23:38;;;;;;;1999.90;999.90;;;5.60;75.80;;;;;;5045841;28;20399;-76
2023/12/27 10:26:05;;;;;;;1999.90;999.90;;;5.70;76.60;;;;;;5045739;28;20029;-75
2023/12/27 10:28:30;;;;;;;1999.90;999.90;;;5.70;76.20;;;;;;5044856;28;20379;-75
2023/12/27 10:30:56;;;;;;;1999.90;999.90;;;5.80;75.80;;;;;;5043825;28;20044;-75
2023/12/27 10:33:23;;;;;;;1999.90;999.90;;;5.80;76.50;;;;;;5044913;28;20029;-76
2023/12/27 10:35:54;;;;;;;1999.90;999.90;;;5.70;75.30;;;;;;5045952;28;20035;-75
2023/12/27 10:38:20;;;;;;;1999.90;999.90;;;5.70;76.20;;;;;;5046109;28;20396;-74
2023/12/27 10:40:46;;;;;;;1999.90;999.90;;;5.70;76.30;;;;;;5044523;28;20106;-74
2023/12/27 10:43:11;;;;;;;1999.90;999.90;;;5.70;76.50;;;;;;5044368;28;20657;-75
2023/12/27 10:45:40;;;;;;;1999.90;999.90;;;5.90;76.70;;;;;;5045801;28;20438;-75
2023/12/27 10:48:06;;;;;;;1999.90;999.90;;;5.80;76.70;;;;;;5043432;28;20047;-74
2023/12/27 10:50:34;;;;;;;1999.90;999.90;;;5.80;77.20;;;;;;5041926;28;20769;-74
2023/12/27 10:53:06;;;;;;;1999.90;999.90;;;5.80;76.90;;;;;;5042384;28;20506;-74
2023/12/27 10:55:35;;;;;;;1999.90;999.90;;;5.70;76.80;;;;;;5044977;28;20036;-75
2023/12/27 10:58:05;;;;;;;1999.90;999.90;;;5.80;76.90;;;;;;5043937;28;20037;-75
2023/12/27 11:00:31;;;;;;;1999.90;999.90;;;5.90;77.60;;;;;;5043111;28;20295;-75
2023/12/27 11:03:03;;;;;;;1999.90;999.90;;;5.90;77.10;;;;;;5046386;28;20064;-74
2023/12/27 11:05:30;;;;;;;1999.90;999.90;;;5.90;77.60;;;;;;5044486;28;20021;-74
2023/12/27 11:07:57;;;;;;;1999.90;999.90;;;6.00;77.10;;;;;;5042859;28;20515;-74
2023/12/27 11:10:27;;;;;;;1999.90;999.90;;;6.00;76.80;;;;;;5042017;28;20037;-75
2023/12/27 11:12:56;;;;;;;1999.90;999.90;;;6.00;77.80;;;;;;5042704;28;20040;-73
2023/12/27 11:15:24;;;;;;;1999.90;999.90;;;5.90;77.80;;;;;;5049589;28;20479;-75
2023/12/27 11:17:51;;;;;;;1999.90;999.90;;;6.00;78.00;;;;;;5047476;28;20048;-73
2023/12/27 11:20:19;;;;;;;1999.90;999.90;;;6.20;76.90;;;;;;5047372;28;20064;-74
2023/12/27 11:22:45;;;;;;;1999.90;999.90;;;6.20;76.60;;;;;;5045566;28;20028;-74
2023/12/27 11:25:12;;;;;;;1999.90;999.90;;;6.30;76.70;;;;;;5048964;28;20098;-73
2023/12/27 11:27:39;;;;;;;1999.90;999.90;;;6.40;76.40;;;;;;5049291;28;20108;-74
2023/12/27 11:30:09;;;;;;;1999.90;999.90;;;6.50;75.10;;;;;;5048517;28;20032;-75
2023/12/27 11:32:36;;;;;;;1999.90;999.90;;;6.60;74.80;;;;;;5058322;28;20086;-76
2023/12/27 11:35:02;;;;;;;1999.90;999.90;;;6.60;73.00;;;;;;5048640;28;20480;-75
2023/12/27 11:37:27;;;;;;;1999.90;999.90;;;6.60;73.50;;;;;;5048648;28;20503;-73
2023/12/27 11:39:53;;;;;;;1999.90;999.90;;;6.70;72.50;;;;;;5048556;28;20036;-75
2023/12/27 11:42:21;;;;;;;1999.90;999.90;;;6.90;72.70;;;;;;5048948;28;20737;-75
2023/12/27 11:44:48;;;;;;;1999.90;999.90;;;6.90;71.40;;;;;;5046611;28;20037;-75
2023/12/27 11:47:17;;;;;;;1999.90;999.90;;;6.90;70.80;;;;;;5045582;28;20124;-75
2023/12/27 11:50:09;;;;;;;1999.90;999.90;;;7.10;71.20;;;;;;5044003;28;20090;-75
2023/12/27 11:52:41;;;;;;;1999.90;999.90;;;7.10;70.10;;;;;;5047952;28;20491;-75
2023/12/27 11:55:21;;;;;;;1999.90;999.90;;;7.20;68.80;;;;;;5047430;28;20025;-74
2023/12/27 11:57:58;;;;;;;1999.90;999.90;;;7.20;69.20;;;;;;5044861;28;20031;-77
2023/12/27 12:00:26;;;;;;;1999.90;999.90;;;7.30;69.60;;;;;;5048220;28;20025;-76
2023/12/27 12:02:59;;;;;;;1999.90;999.90;;;7.40;67.60;;;;;;5049992;28;20722;-75
2023/12/27 12:05:47;;;;;;;1999.90;999.90;;;7.50;66.90;;;;;;5047987;28;20025;-75